| time (UTC) | temp F | wind direction | speed knots | gust knots | rain 1hr in | rain 24hr in | rain mn in | humidity % | barometer mb |
| 20260507114036 | 59 | 88 | 0.0 | 0.0 | 0.00 | 0.00 | 0.00 | 86 | 1017.4 |
| 20260507113536 | 60 | 88 | 0.0 | 0.0 | 0.00 | 0.00 | 0.00 | 86 | 1017.4 |
| 20260507113035 | 60 | 88 | 0.0 | 0.0 | 0.00 | 0.00 | 0.00 | 87 | 1017.4 |
| 20260507112535 | 60 | 121 | 0.9 | 5.2 | 0.00 | 0.00 | 0.00 | 87 | 1017.4 |
| 20260507112035 | 60 | 286 | 0.0 | 1.7 | 0.00 | 0.00 | 0.00 | 87 | 1017.4 |
| 20260507111535 | 60 | 286 | 0.0 | 1.7 | 0.00 | 0.00 | 0.00 | 87 | 1017.4 |
| 20260507111035 | 60 | 286 | 0.0 | 1.7 | 0.00 | 0.00 | 0.00 | 87 | 1017.5 |
| 20260507110536 | 60 | 286 | 2.6 | 3.5 | 0.00 | 0.00 | 0.00 | 87 | 1017.5 |
| 20260507110035 | 60 | 268 | 4.3 | 7.0 | 0.00 | 0.00 | 0.00 | 88 | 1017.5 |
| 20260507105535 | 61 | 257 | 3.5 | 5.2 | 0.00 | 0.00 | 0.00 | 88 | 1017.5 |
| 20260507105035 | 61 | 217 | 2.6 | 5.2 | 0.00 | 0.00 | 0.00 | 88 | 1017.6 |
| 20260507104535 | 61 | 210 | 0.0 | 1.7 | 0.00 | 0.00 | 0.00 | 88 | 1017.6 |
| 20260507104035 | 61 | 300 | 0.0 | 0.0 | 0.00 | 0.00 | 0.00 | 88 | 1017.6 |
| 20260507103536 | 61 | 336 | 0.0 | 0.0 | 0.00 | 0.00 | 0.00 | 88 | 1017.6 |
| 20260507103039 | 61 | 310 | 0.0 | 0.0 | 0.00 | 0.00 | 0.00 | 89 | 1017.6 |
| 20260507102532 | 61 | 293 | 2.6 | 5.2 | 0.00 | 0.00 | 0.00 | 89 | 1017.7 |
| 20260507102035 | 61 | 83 | 0.9 | 3.5 | 0.00 | 0.00 | 0.00 | 89 | 1017.7 |
| 20260507101536 | 62 | 105 | 0.0 | 1.7 | 0.00 | 0.00 | 0.00 | 89 | 1017.7 |
| 20260507101028 | 61 | 104 | 0.0 | 1.7 | 0.00 | 0.00 | 0.00 | 89 | 1017.6 |
| 20260507100535 | 62 | 83 | 0.0 | 1.7 | 0.00 | 0.00 | 0.00 | 90 | 1017.6 |
| 20260507100035 | 63 | 120 | 1.7 | 5.2 | 0.00 | 0.00 | 0.00 | 90 | 1017.6 |
| 20260507095529 | 63 | 116 | 3.5 | 7.0 | 0.00 | 0.00 | 0.00 | 90 | 1017.5 |
| 20260507095035 | 62 | 135 | 6.1 | 8.7 | 0.00 | 0.00 | 0.00 | 90 | 1017.5 |
| 20260507094534 | 62 | 105 | 6.1 | 10.4 | 0.00 | 0.00 | 0.00 | 90 | 1017.5 |
| 20260507094034 | 63 | 160 | 5.2 | 8.7 | 0.00 | 0.00 | 0.00 | 90 | 1017.4 |
| 20260507093534 | 63 | 116 | 2.6 | 8.7 | 0.00 | 0.00 | 0.00 | 91 | 1017.4 |
| 20260507093045 | 62 | 345 | 0.0 | 1.7 | 0.00 | 0.00 | 0.00 | 91 | 1017.4 |
| 20260507092531 | 62 | 67 | 3.5 | 7.0 | 0.00 | 0.00 | 0.00 | 91 | 1017.4 |
| 20260507092035 | 61 | 135 | 3.5 | 7.0 | 0.00 | 0.00 | 0.00 | 91 | 1017.2 |
| 20260507091535 | 60 | 1 | 2.6 | 5.2 | 0.00 | 0.00 | 0.00 | 92 | 1017.4 |
| 20260507091028 | 60 | 20 | 1.7 | 8.7 | 0.00 | 0.00 | 0.00 | 92 | 1017.4 |
| 20260507090534 | 59 | 48 | 2.6 | 7.0 | 0.00 | 0.00 | 0.00 | 92 | 1017.3 |
| 20260507090027 | 59 | 92 | 1.7 | 3.5 | 0.00 | 0.00 | 0.00 | 92 | 1017.3 |
| 20260507085534 | 58 | 156 | 1.7 | 3.5 | 0.00 | 0.00 | 0.00 | 92 | 1017.3 |
| 20260507085035 | 58 | 20 | 2.6 | 5.2 | 0.00 | 0.00 | 0.00 | 92 | 1017.2 |
| 20260507084535 | 58 | 26 | 4.3 | 8.7 | 0.00 | 0.00 | 0.00 | 93 | 1017.2 |
| 20260507084035 | 59 | 32 | 1.7 | 3.5 | 0.00 | 0.00 | 0.00 | 93 | 1017.2 |
| 20260507083535 | 59 | 81 | 0.9 | 3.5 | 0.00 | 0.00 | 0.00 | 93 | 1017.2 |
| 20260507083034 | 58 | 118 | 2.6 | 5.2 | 0.00 | 0.00 | 0.00 | 93 | 1017.1 |
| 20260507082536 | 58 | 83 | 0.0 | 1.7 | 0.00 | 0.00 | 0.00 | 93 | 1017.1 |
| 20260507082034 | 58 | 116 | 1.7 | 3.5 | 0.00 | 0.00 | 0.00 | 93 | 1017.1 |
| 20260507081534 | 57 | 167 | 0.9 | 3.5 | 0.00 | 0.01 | 0.00 | 94 | 1017.1 |
| 20260507081035 | 56 | 45 | 0.0 | 0.0 | 0.00 | 0.01 | 0.00 | 94 | 1017.2 |
| 20260507080535 | 56 | 342 | 0.0 | 1.7 | 0.00 | 0.01 | 0.00 | 94 | 1017.2 |
| 20260507080034 | 56 | 120 | 0.0 | 0.0 | 0.00 | 0.01 | 0.00 | 94 | 1017.2 |
| 20260507075535 | 56 | 27 | 0.0 | 5.2 | 0.00 | 0.01 | 0.00 | 94 | 1017.2 |
| 20260507075035 | 55 | 173 | 0.0 | 3.5 | 0.00 | 0.01 | 0.00 | 94 | 1017.2 |
| 20260507074534 | 55 | 188 | 0.0 | 1.7 | 0.00 | 0.01 | 0.00 | 94 | 1017.2 |
| 20260507074035 | 54 | 89 | 0.9 | 3.5 | 0.00 | 0.01 | 0.00 | 94 | 1017.2 |
| 20260507073534 | 54 | 114 | 1.7 | 5.2 | 0.00 | 0.01 | 0.00 | 95 | 1017.2 |
| 20260507073035 | 54 | 21 | 0.0 | 1.7 | 0.00 | 0.01 | 0.00 | 95 | 1017.1 |
| 20260507072535 | 54 | 152 | 0.0 | 1.7 | 0.00 | 0.01 | 0.00 | 95 | 1017.1 |
| 20260507072035 | 54 | 85 | 0.0 | 1.7 | 0.00 | 0.01 | 0.00 | 95 | 1017.0 |
| 20260507071535 | 53 | 71 | 0.0 | 1.7 | 0.00 | 0.01 | 0.00 | 95 | 1016.9 |
| 20260507071035 | 53 | 45 | 0.0 | 5.2 | 0.00 | 0.01 | 0.00 | 95 | 1016.9 |
| 20260507070535 | 53 | 92 | 0.9 | 3.5 | 0.00 | 0.01 | 0.00 | 95 | 1016.8 |
| 20260507070034 | 52 | 136 | 1.7 | 5.2 | 0.00 | 0.01 | 0.00 | 95 | 1016.8 |
| 20260507065536 | 52 | 135 | 0.9 | 3.5 | 0.00 | 0.01 | 0.00 | 95 | 1016.8 |
| 20260507065035 | 52 | 134 | 1.7 | 5.2 | 0.00 | 0.01 | 0.00 | 95 | 1016.9 |
| 20260507064534 | 52 | 174 | 0.0 | 3.5 | 0.00 | 0.01 | 0.00 | 95 | 1016.9 |
| 20260507064035 | 52 | 45 | 0.0 | 3.5 | 0.00 | 0.01 | 0.00 | 95 | 1016.9 |
| 20260507063535 | 51 | 45 | 0.0 | 0.0 | 0.00 | 0.01 | 0.00 | 95 | 1016.8 |
| 20260507063035 | 51 | 45 | 0.0 | 0.0 | 0.00 | 0.01 | 0.00 | 96 | 1016.7 |
| 20260507062535 | 50 | 45 | 0.0 | 0.0 | 0.00 | 0.01 | 0.00 | 96 | 1016.6 |
| 20260507062035 | 50 | 45 | 0.0 | 0.0 | 0.00 | 0.01 | 0.00 | 96 | 1016.6 |
| 20260507061535 | 49 | 45 | 0.0 | 0.0 | 0.00 | 0.01 | 0.00 | 95 | 1016.5 |
| 20260507061035 | 49 | 45 | 0.0 | 0.0 | 0.00 | 0.01 | 0.00 | 95 | 1016.5 |
| 20260507060535 | 49 | 45 | 0.0 | 0.0 | 0.00 | 0.01 | 0.00 | 95 | 1016.5 |
| 20260507060028 | 49 | 45 | 0.0 | 0.0 | 0.00 | 0.01 | 0.00 | 95 | 1016.5 |
| 20260507055534 | 48 | 45 | 0.0 | 0.0 | 0.00 | 0.01 | 0.00 | 95 | 1016.4 |
| 20260507055034 | 48 | 45 | 0.0 | 0.0 | 0.00 | 0.01 | 0.00 | 95 | 1016.4 |
| 20260507054528 | 48 | 45 | 0.0 | 0.0 | 0.00 | 0.01 | 0.00 | 95 | 1016.3 |
| 20260507054035 | 48 | 45 | 0.0 | 0.0 | 0.00 | 0.01 | 0.00 | 95 | 1016.3 |
| 20260507053535 | 48 | 45 | 0.0 | 0.0 | 0.00 | 0.01 | 0.00 | 95 | 1016.2 |
| 20260507053029 | 48 | 45 | 0.0 | 0.0 | 0.00 | 0.01 | 0.00 | 95 | 1016.1 |
| 20260507052535 | 47 | 45 | 0.0 | 0.0 | 0.00 | 0.01 | 0.00 | 95 | 1016.0 |
| 20260507052035 | 47 | 45 | 0.0 | 0.0 | 0.00 | 0.01 | 0.00 | 95 | 1016.0 |
| 20260507051535 | 47 | 45 | 0.0 | 0.0 | 0.00 | 0.01 | 0.00 | 95 | 1016.0 |
| 20260507051035 | 47 | 45 | 0.0 | 0.0 | 0.00 | 0.01 | 0.00 | 95 | 1015.9 |
| 20260507050534 | 47 | 45 | 0.0 | 0.0 | 0.00 | 0.01 | 0.00 | 95 | 1015.8 |
| 20260507050035 | 47 | 45 | 0.0 | 0.0 | 0.00 | 0.01 | 0.00 | 95 | 1015.8 |
| 20260507045535 | 47 | 45 | 0.0 | 0.0 | 0.00 | 0.01 | 0.00 | 95 | 1015.8 |
| 20260507045034 | 46 | 45 | 0.0 | 0.0 | 0.00 | 0.01 | 0.00 | 95 | 1015.8 |
| 20260507044535 | 46 | 45 | 0.0 | 0.0 | 0.00 | 0.01 | 0.00 | 95 | 1015.8 |
| 20260507044035 | 46 | 45 | 0.0 | 0.0 | 0.00 | 0.01 | 0.00 | 94 | 1015.7 |
| 20260507043534 | 46 | 45 | 0.0 | 0.0 | 0.00 | 0.01 | 0.00 | 94 | 1015.7 |
| 20260507043035 | 46 | 45 | 0.0 | 0.0 | 0.00 | 0.01 | 0.00 | 94 | 1015.8 |
| 20260507042534 | 46 | 45 | 0.0 | 0.0 | 0.00 | 0.01 | 0.00 | 94 | 1015.7 |
| 20260507042035 | 46 | 45 | 0.0 | 0.0 | 0.00 | 0.01 | 0.00 | 94 | 1015.7 |
| 20260507041534 | 46 | 45 | 0.0 | 0.0 | 0.00 | 0.01 | 0.00 | 94 | 1015.7 |
| 20260507041035 | 46 | 45 | 0.0 | 0.0 | 0.00 | 0.01 | 0.00 | 94 | 1015.7 |
| 20260507040533 | 46 | 45 | 0.0 | 0.0 | 0.00 | 0.01 | 0.00 | 94 | 1015.6 |
| 20260507040033 | 46 | 45 | 0.0 | 0.0 | 0.00 | 0.01 | 0.00 | 94 | 1015.5 |
| 20260507035533 | 46 | 45 | 0.0 | 0.0 | 0.00 | 0.01 | 0.00 | 94 | 1015.5 |
| 20260507035033 | 46 | 45 | 0.0 | 0.0 | 0.00 | 0.01 | 0.00 | 94 | 1015.5 |
| 20260507034533 | 46 | 45 | 0.0 | 0.0 | 0.00 | 0.01 | 0.00 | 93 | 1015.5 |
| 20260507034033 | 46 | 45 | 0.0 | 0.0 | 0.00 | 0.01 | 0.00 | 93 | 1015.5 |
| 20260507033533 | 45 | 45 | 0.0 | 0.0 | 0.00 | 0.01 | 0.00 | 93 | 1015.5 |
| 20260507033033 | 45 | 45 | 0.9 | 1.7 | 0.00 | 0.01 | 0.00 | 93 | 1015.5 |
| 20260507032533 | 46 | 272 | 0.0 | 0.0 | 0.00 | 0.01 | 0.00 | 93 | 1015.4 |
| 20260507032033 | 46 | 272 | 0.0 | 0.0 | 0.00 | 0.01 | 0.00 | 93 | 1015.4 |
| 20260507031533 | 45 | 271 | 0.0 | 0.0 | 0.00 | 0.01 | 0.00 | 93 | 1015.3 |
| 20260507031033 | 45 | 271 | 0.0 | 0.0 | 0.00 | 0.01 | 0.00 | 93 | 1015.3 |
| 20260507030533 | 45 | 271 | 0.0 | 0.0 | 0.00 | 0.01 | 0.00 | 93 | 1015.3 |
| 20260507030033 | 45 | 271 | 0.0 | 0.0 | 0.00 | 0.01 | 0.00 | 92 | 1015.3 |
| 20260507025533 | 45 | 271 | 0.0 | 0.0 | 0.00 | 0.01 | 0.00 | 92 | 1015.3 |
| 20260507025033 | 45 | 271 | 0.0 | 0.0 | 0.00 | 0.01 | 0.00 | 92 | 1015.2 |
| 20260507024533 | 45 | 271 | 0.0 | 0.0 | 0.00 | 0.01 | 0.00 | 92 | 1015.2 |
| 20260507024033 | 45 | 271 | 0.0 | 0.0 | 0.00 | 0.01 | 0.00 | 92 | 1015.2 |
| 20260507023533 | 45 | 271 | 0.0 | 0.0 | 0.00 | 0.01 | 0.00 | 92 | 1015.2 |
| 20260507023033 | 45 | 271 | 0.0 | 1.7 | 0.00 | 0.01 | 0.00 | 92 | 1015.1 |
| 20260507022533 | 45 | 271 | 0.0 | 0.0 | 0.00 | 0.01 | 0.00 | 91 | 1015.1 |
| 20260507022032 | 45 | 271 | 0.0 | 0.0 | 0.00 | 0.01 | 0.00 | 91 | 1015.1 |
| 20260507021534 | 45 | 271 | 0.0 | 0.0 | 0.00 | 0.01 | 0.00 | 91 | 1015.1 |
| 20260507021033 | 45 | 271 | 0.0 | 0.0 | 0.00 | 0.01 | 0.00 | 91 | 1015.0 |
| 20260507020527 | 45 | 271 | 0.0 | 0.0 | 0.00 | 0.01 | 0.00 | 91 | 1015.0 |
| 20260507020033 | 45 | 271 | 0.0 | 0.0 | 0.00 | 0.01 | 0.00 | 91 | 1014.9 |
| 20260507015534 | 45 | 271 | 0.0 | 0.0 | 0.00 | 0.01 | 0.00 | 91 | 1014.9 |
| 20260507015026 | 44 | 271 | 0.0 | 0.0 | 0.00 | 0.01 | 0.00 | 91 | 1014.9 |
| 20260507014534 | 44 | 271 | 0.0 | 1.7 | 0.00 | 0.01 | 0.00 | 91 | 1014.8 |
| 20260507014033 | 44 | 271 | 0.0 | 0.0 | 0.00 | 0.01 | 0.00 | 91 | 1014.8 |
| 20260507013533 | 44 | 271 | 0.0 | 0.0 | 0.00 | 0.01 | 0.00 | 90 | 1014.8 |
| 20260507013033 | 44 | 271 | 0.0 | 0.0 | 0.00 | 0.01 | 0.00 | 90 | 1014.7 |
| 20260507012533 | 44 | 271 | 0.0 | 0.0 | 0.00 | 0.01 | 0.00 | 90 | 1014.7 |
| 20260507012026 | 44 | 271 | 0.0 | 0.0 | 0.00 | 0.01 | 0.00 | 90 | 1014.7 |
| 20260507011533 | 44 | 271 | 0.0 | 0.0 | 0.00 | 0.01 | 0.00 | 90 | 1014.7 |
| 20260507011033 | 44 | 271 | 0.0 | 0.0 | 0.00 | 0.01 | 0.00 | 90 | 1014.7 |
| 20260507010529 | 44 | 271 | 0.0 | 0.0 | 0.00 | 0.01 | 0.00 | 90 | 1014.7 |
| 20260507010033 | 44 | 271 | 0.0 | 0.0 | 0.00 | 0.01 | 0.00 | 90 | 1014.8 |
| 20260507005533 | 44 | 271 | 0.0 | 0.0 | 0.00 | 0.01 | 0.00 | 90 | 1014.8 |
| 20260507005033 | 44 | 271 | 0.0 | 0.0 | 0.00 | 0.01 | 0.00 | 90 | 1014.7 |
| 20260507004533 | 44 | 271 | 0.0 | 0.0 | 0.00 | 0.01 | 0.00 | 89 | 1014.7 |
| 20260507004033 | 44 | 271 | 0.0 | 0.0 | 0.00 | 0.01 | 0.00 | 89 | 1014.7 |
| 20260507003533 | 44 | 271 | 0.0 | 0.0 | 0.00 | 0.01 | 0.00 | 89 | 1014.7 |
| 20260507003033 | 44 | 271 | 0.0 | 0.0 | 0.00 | 0.01 | 0.00 | 89 | 1014.6 |
| 20260507002533 | 44 | 271 | 0.0 | 0.0 | 0.00 | 0.01 | 0.00 | 89 | 1014.6 |
| 20260507002033 | 44 | 271 | 0.0 | 0.0 | 0.00 | 0.01 | 0.00 | 89 | 1014.7 |
| 20260507001538 | 44 | 271 | 0.0 | 0.0 | 0.00 | 0.01 | 0.00 | 89 | 1014.6 |
| 20260507001033 | 44 | 271 | 0.0 | 0.0 | 0.00 | 0.01 | 0.00 | 89 | 1014.6 |
| 20260507000532 | 44 | 271 | 0.0 | 0.0 | 0.00 | 0.01 | 0.00 | 89 | 1014.6 |
| 20260507000033 | 44 | 271 | 0.0 | 0.0 | 0.00 | 0.01 | 0.01 | 89 | 1014.6 |
| 20260506235535 | 44 | 271 | 0.0 | 0.0 | 0.00 | 0.01 | 0.01 | 88 | 1014.6 |
| 20260506235034 | 44 | 271 | 0.0 | 0.0 | 0.00 | 0.01 | 0.01 | 88 | 1014.5 |
| 20260506234535 | 44 | 271 | 0.0 | 0.0 | 0.00 | 0.01 | 0.01 | 88 | 1014.5 |
| 20260506234034 | 44 | 271 | 0.0 | 0.0 | 0.00 | 0.01 | 0.01 | 88 | 1014.5 |
| 20260506233531 | 44 | 271 | 0.0 | 0.0 | 0.00 | 0.01 | 0.01 | 88 | 1014.4 |
| 20260506233034 | 44 | 271 | 0.0 | 0.0 | 0.00 | 0.01 | 0.01 | 88 | 1014.4 |
| 20260506232539 | 44 | 271 | 0.0 | 0.0 | 0.00 | 0.01 | 0.01 | 88 | 1014.4 |
| 20260506232039 | 44 | 271 | 0.0 | 0.0 | 0.00 | 0.01 | 0.01 | 88 | 1014.4 |
| 20260506231535 | 44 | 271 | 0.0 | 0.0 | 0.00 | 0.01 | 0.01 | 88 | 1014.4 |
| 20260506231038 | 43 | 271 | 0.0 | 0.0 | 0.00 | 0.01 | 0.01 | 88 | 1014.3 |
| 20260506230538 | 43 | 271 | 0.0 | 0.0 | 0.00 | 0.01 | 0.01 | 88 | 1014.3 |
| 20260506230039 | 43 | 271 | 0.0 | 0.0 | 0.00 | 0.01 | 0.01 | 87 | 1014.2 |
| 20260506225539 | 43 | 271 | 0.0 | 0.0 | 0.00 | 0.01 | 0.01 | 87 | 1014.2 |
| 20260506225035 | 43 | 271 | 0.0 | 0.0 | 0.00 | 0.01 | 0.01 | 87 | 1014.2 |
| 20260506224539 | 44 | 271 | 0.0 | 0.0 | 0.00 | 0.01 | 0.01 | 87 | 1014.2 |
| 20260506224031 | 44 | 271 | 0.0 | 0.0 | 0.00 | 0.01 | 0.01 | 87 | 1014.2 |
| 20260506223539 | 44 | 271 | 0.0 | 0.0 | 0.00 | 0.01 | 0.01 | 87 | 1014.2 |
| 20260506223038 | 44 | 271 | 0.0 | 0.0 | 0.00 | 0.01 | 0.01 | 87 | 1014.1 |
| 20260506222528 | 44 | 271 | 0.0 | 0.0 | 0.00 | 0.01 | 0.01 | 87 | 1014.1 |
| 20260506222039 | 44 | 271 | 0.0 | 0.0 | 0.00 | 0.01 | 0.01 | 87 | 1014.0 |
| 20260506221530 | 44 | 271 | 0.0 | 0.0 | 0.00 | 0.01 | 0.01 | 87 | 1014.0 |
| 20260506221032 | 44 | 271 | 0.0 | 0.0 | 0.00 | 0.01 | 0.01 | 87 | 1014.0 |
| 20260506220532 | 45 | 271 | 0.0 | 0.0 | 0.00 | 0.01 | 0.01 | 87 | 1014.0 |
| 20260506220034 | 45 | 271 | 0.0 | 0.0 | 0.00 | 0.01 | 0.01 | 87 | 1014.0 |
| 20260506215535 | 45 | 271 | 0.0 | 0.0 | 0.00 | 0.01 | 0.01 | 86 | 1014.0 |
| 20260506215034 | 45 | 271 | 0.0 | 0.0 | 0.00 | 0.01 | 0.01 | 86 | 1013.9 |
| 20260506214535 | 45 | 271 | 0.0 | 0.0 | 0.00 | 0.01 | 0.01 | 86 | 1013.9 |
| 20260506214035 | 46 | 271 | 0.0 | 0.0 | 0.00 | 0.01 | 0.01 | 86 | 1014.0 |
| 20260506213535 | 46 | 271 | 0.0 | 0.0 | 0.00 | 0.01 | 0.01 | 86 | 1014.0 |
| 20260506213042 | 46 | 271 | 0.0 | 0.0 | 0.00 | 0.01 | 0.01 | 86 | 1014.0 |
| 20260506212535 | 47 | 271 | 0.0 | 0.0 | 0.00 | 0.01 | 0.01 | 86 | 1014.0 |
| 20260506212036 | 47 | 271 | 0.0 | 0.0 | 0.00 | 0.01 | 0.01 | 86 | 1013.8 |
| 20260506211535 | 47 | 271 | 0.0 | 0.0 | 0.00 | 0.01 | 0.01 | 86 | 1013.7 |
| 20260506211036 | 48 | 271 | 0.0 | 0.0 | 0.00 | 0.01 | 0.01 | 86 | 1013.7 |
| 20260506210536 | 48 | 271 | 0.0 | 0.0 | 0.00 | 0.01 | 0.01 | 86 | 1013.7 |
| 20260506210035 | 48 | 271 | 0.0 | 0.0 | 0.00 | 0.01 | 0.01 | 86 | 1013.7 |
| 20260506205536 | 49 | 271 | 0.0 | 0.0 | 0.00 | 0.01 | 0.01 | 86 | 1013.7 |
| 20260506205035 | 49 | 271 | 0.0 | 0.0 | 0.00 | 0.01 | 0.01 | 86 | 1013.7 |
| 20260506204536 | 49 | 271 | 0.0 | 0.0 | 0.00 | 0.01 | 0.01 | 86 | 1013.6 |
| 20260506204028 | 50 | 271 | 0.0 | 0.0 | 0.00 | 0.01 | 0.01 | 86 | 1013.6 |
| 20260506203535 | 50 | 271 | 0.0 | 0.0 | 0.00 | 0.01 | 0.01 | 86 | 1013.6 |
| 20260506203036 | 50 | 271 | 0.0 | 0.0 | 0.00 | 0.01 | 0.01 | 86 | 1013.5 |
| 20260506202529 | 51 | 271 | 0.0 | 0.0 | 0.00 | 0.01 | 0.01 | 86 | 1013.4 |
| 20260506202035 | 51 | 271 | 0.0 | 0.0 | 0.00 | 0.01 | 0.01 | 86 | 1013.3 |
| 20260506201536 | 52 | 271 | 0.0 | 1.7 | 0.00 | 0.01 | 0.01 | 86 | 1013.3 |
| 20260506201029 | 52 | 271 | 0.0 | 1.7 | 0.00 | 0.01 | 0.01 | 86 | 1013.3 |
| 20260506200536 | 52 | 324 | 0.0 | 1.7 | 0.00 | 0.01 | 0.01 | 86 | 1013.2 |
| 20260506200035 | 53 | 343 | 0.0 | 0.0 | 0.00 | 0.01 | 0.01 | 86 | 1013.2 |
| 20260506195531 | 53 | 9 | 0.9 | 3.5 | 0.00 | 0.01 | 0.01 | 86 | 1013.2 |
| 20260506195036 | 53 | 292 | 0.0 | 1.7 | 0.00 | 0.01 | 0.01 | 86 | 1013.2 |
| 20260506194535 | 54 | 24 | 0.0 | 1.7 | 0.00 | 0.01 | 0.01 | 86 | 1013.1 |
| 20260506194030 | 54 | 94 | 0.9 | 3.5 | 0.00 | 0.01 | 0.01 | 87 | 1013.1 |
| 20260506193536 | 54 | 173 | 3.5 | 10.4 | 0.00 | 0.01 | 0.01 | 87 | 1013.0 |
| 20260506193035 | 54 | 16 | 2.6 | 7.0 | 0.00 | 0.01 | 0.01 | 87 | 1013.0 |
| 20260506192536 | 54 | 64 | 0.0 | 0.0 | 0.00 | 0.01 | 0.01 | 87 | 1013.0 |
| 20260506192035 | 54 | 357 | 0.9 | 3.5 | 0.00 | 0.01 | 0.01 | 87 | 1012.9 |
| 20260506191535 | 54 | 357 | 4.3 | 7.0 | 0.00 | 0.01 | 0.01 | 87 | 1012.9 |
| 20260506191035 | 54 | 32 | 1.7 | 5.2 | 0.00 | 0.01 | 0.01 | 87 | 1012.9 |
| 20260506190535 | 54 | 315 | 3.5 | 7.0 | 0.00 | 0.01 | 0.01 | 87 | 1012.8 |
| 20260506190035 | 54 | 336 | 4.3 | 7.0 | 0.00 | 0.01 | 0.01 | 87 | 1012.8 |
| 20260506185535 | 54 | 332 | 4.3 | 7.0 | 0.00 | 0.01 | 0.01 | 87 | 1012.5 |
| 20260506185035 | 55 | 331 | 6.1 | 10.4 | 0.00 | 0.01 | 0.01 | 87 | 1012.5 |
| 20260506184536 | 55 | 316 | 5.2 | 8.7 | 0.00 | 0.01 | 0.01 | 87 | 1012.5 |
| 20260506184035 | 55 | 312 | 4.3 | 8.7 | 0.00 | 0.01 | 0.01 | 87 | 1012.5 |
| 20260506183535 | 55 | 356 | 3.5 | 5.2 | 0.00 | 0.01 | 0.01 | 87 | 1012.4 |
| 20260506183035 | 55 | 326 | 5.2 | 8.7 | 0.00 | 0.01 | 0.01 | 87 | 1012.4 |
| 20260506182536 | 55 | 311 | 4.3 | 7.0 | 0.00 | 0.01 | 0.01 | 87 | 1012.3 |
| 20260506182035 | 56 | 356 | 2.6 | 8.7 | 0.00 | 0.01 | 0.01 | 87 | 1012.3 |
| 20260506181535 | 56 | 335 | 2.6 | 7.0 | 0.00 | 0.01 | 0.01 | 87 | 1012.3 |
| 20260506181036 | 56 | 329 | 7.0 | 10.4 | 0.00 | 0.01 | 0.01 | 87 | 1012.2 |
| 20260506180535 | 56 | 349 | 9.6 | 15.6 | 0.00 | 0.01 | 0.01 | 87 | 1012.1 |
| 20260506180036 | 56 | 326 | 7.0 | 13.9 | 0.00 | 0.01 | 0.01 | 87 | 1012.2 |
| 20260506175537 | 56 | 338 | 5.2 | 12.2 | 0.00 | 0.01 | 0.01 | 87 | 1012.1 |
| 20260506175037 | 57 | 351 | 5.2 | 10.4 | 0.00 | 0.01 | 0.01 | 87 | 1012.0 |
| 20260506174537 | 57 | 335 | 7.0 | 12.2 | 0.00 | 0.01 | 0.01 | 87 | 1011.8 |
| 20260506174035 | 57 | 340 | 7.8 | 12.2 | 0.00 | 0.01 | 0.01 | 87 | 1011.7 |
| 20260506173536 | 58 | 353 | 8.7 | 13.9 | 0.00 | 0.01 | 0.01 | 86 | 1011.7 |
| 20260506173035 | 58 | 331 | 5.2 | 8.7 | 0.00 | 0.01 | 0.01 | 86 | 1011.6 |
| 20260506172535 | 59 | 347 | 11.3 | 17.4 | 0.00 | 0.01 | 0.01 | 87 | 1011.5 |
| 20260506172035 | 59 | 355 | 7.8 | 13.9 | 0.00 | 0.01 | 0.01 | 87 | 1011.4 |
| 20260506171536 | 60 | 328 | 7.0 | 12.2 | 0.00 | 0.01 | 0.01 | 87 | 1011.3 |
| 20260506171030 | 60 | 11 | 7.8 | 12.2 | 0.00 | 0.01 | 0.01 | 87 | 1011.2 |
| 20260506170536 | 60 | 338 | 16.5 | 26.1 | 0.00 | 0.01 | 0.01 | 87 | 1011.2 |
| 20260506170035 | 60 | 342 | 7.8 | 12.2 | 0.00 | 0.01 | 0.01 | 87 | 1011.2 |
| 20260506165536 | 60 | 350 | 9.6 | 17.4 | 0.00 | 0.01 | 0.01 | 87 | 1011.2 |
| 20260506165035 | 60 | 2 | 13.9 | 22.6 | 0.00 | 0.01 | 0.01 | 87 | 1011.1 |
| 20260506164535 | 60 | 7 | 10.4 | 15.6 | 0.00 | 0.01 | 0.01 | 87 | 1011.1 |
| 20260506164036 | 60 | 350 | 10.4 | 17.4 | 0.00 | 0.01 | 0.01 | 87 | 1011.1 |
| 20260506163535 | 60 | 350 | 11.3 | 22.6 | 0.00 | 0.01 | 0.01 | 87 | 1011.2 |
| 20260506163035 | 60 | 14 | 13.9 | 26.1 | 0.00 | 0.01 | 0.01 | 87 | 1011.2 |
| 20260506162535 | 61 | 13 | 6.1 | 10.4 | 0.00 | 0.01 | 0.01 | 87 | 1011.1 |
| 20260506162035 | 61 | 345 | 10.4 | 17.4 | 0.00 | 0.01 | 0.01 | 87 | 1011.1 |
| 20260506161529 | 61 | 0 | 14.8 | 22.6 | 0.00 | 0.01 | 0.01 | 87 | 1011.2 |
| 20260506161035 | 61 | 359 | 16.5 | 24.3 | 0.00 | 0.01 | 0.01 | 87 | 1011.1 |
| 20260506160536 | 62 | 3 | 12.2 | 17.4 | 0.00 | 0.01 | 0.01 | 87 | 1011.1 |
| 20260506160030 | 62 | 10 | 11.3 | 24.3 | 0.00 | 0.01 | 0.01 | 88 | 1011.0 |
| 20260506155535 | 62 | 359 | 9.6 | 19.1 | 0.00 | 0.01 | 0.01 | 88 | 1011.0 |
| 20260506155035 | 62 | 11 | 17.4 | 24.3 | 0.00 | 0.01 | 0.01 | 88 | 1010.9 |
| 20260506154529 | 62 | 13 | 14.8 | 20.9 | 0.00 | 0.01 | 0.01 | 88 | 1010.9 |
| 20260506154036 | 60 | 12 | 11.3 | 22.6 | 0.00 | 0.01 | 0.01 | 88 | 1010.9 |
| 20260506153535 | 59 | 357 | 13.9 | 20.9 | 0.00 | 0.01 | 0.01 | 88 | 1010.9 |
| 20260506153028 | 59 | 11 | 11.3 | 17.4 | 0.00 | 0.01 | 0.01 | 88 | 1011.0 |
| 20260506152535 | 60 | 20 | 13.9 | 20.9 | 0.00 | 0.01 | 0.01 | 89 | 1011.1 |
| 20260506152035 | 61 | 2 | 9.6 | 17.4 | 0.00 | 0.01 | 0.01 | 89 | 1011.1 |
| 20260506151535 | 61 | 8 | 12.2 | 17.4 | 0.00 | 0.01 | 0.01 | 89 | 1010.9 |
| 20260506151036 | 61 | 5 | 13.0 | 19.1 | 0.00 | 0.01 | 0.01 | 89 | 1010.9 |
| 20260506150535 | 61 | 17 | 9.6 | 15.6 | 0.00 | 0.01 | 0.01 | 89 | 1010.9 |
| 20260506150035 | 63 | 4 | 7.8 | 13.9 | 0.00 | 0.01 | 0.01 | 89 | 1010.9 |
| 20260506145535 | 62 | 5 | 9.6 | 15.6 | 0.00 | 0.01 | 0.01 | 89 | 1010.9 |
| 20260506145036 | 61 | 359 | 9.6 | 15.6 | 0.00 | 0.01 | 0.01 | 89 | 1010.9 |
| 20260506144535 | 61 | 7 | 13.0 | 19.1 | 0.00 | 0.01 | 0.01 | 90 | 1010.8 |
| 20260506144035 | 61 | 26 | 12.2 | 17.4 | 0.00 | 0.01 | 0.01 | 90 | 1010.8 |
| 20260506143535 | 61 | 15 | 11.3 | 20.9 | 0.00 | 0.01 | 0.01 | 90 | 1010.8 |
| 20260506143035 | 61 | 24 | 7.8 | 15.6 | 0.00 | 0.01 | 0.01 | 90 | 1010.8 |
| 20260506142536 | 60 | 13 | 8.7 | 15.6 | 0.00 | 0.01 | 0.01 | 90 | 1010.8 |
| 20260506142035 | 60 | 18 | 14.8 | 19.1 | 0.00 | 0.01 | 0.01 | 91 | 1010.8 |
| 20260506141535 | 61 | 356 | 7.8 | 13.9 | 0.00 | 0.01 | 0.01 | 91 | 1010.8 |
| 20260506141035 | 60 | 2 | 9.6 | 13.9 | 0.00 | 0.01 | 0.01 | 91 | 1010.8 |
| 20260506140535 | 60 | 22 | 7.8 | 13.9 | 0.00 | 0.01 | 0.01 | 91 | 1010.8 |
| 20260506140034 | 60 | 32 | 8.7 | 15.6 | 0.00 | 0.01 | 0.01 | 91 | 1010.8 |
| 20260506135535 | 61 | 7 | 16.5 | 22.6 | 0.00 | 0.01 | 0.01 | 91 | 1010.9 |
| 20260506135036 | 61 | 20 | 7.8 | 12.2 | 0.00 | 0.01 | 0.01 | 91 | 1010.9 |
| 20260506134535 | 61 | 3 | 12.2 | 19.1 | 0.00 | 0.01 | 0.01 | 91 | 1010.8 |
| 20260506134036 | 61 | 341 | 11.3 | 15.6 | 0.00 | 0.01 | 0.01 | 91 | 1011.0 |
| 20260506133536 | 60 | 17 | 11.3 | 17.4 | 0.00 | 0.01 | 0.01 | 92 | 1011.1 |
| 20260506133035 | 60 | 33 | 8.7 | 13.9 | 0.00 | 0.01 | 0.01 | 92 | 1011.1 |
| 20260506132536 | 60 | 11 | 12.2 | 15.6 | 0.00 | 0.01 | 0.01 | 92 | 1011.1 |
| 20260506132035 | 60 | 359 | 5.2 | 8.7 | 0.00 | 0.01 | 0.01 | 92 | 1011.1 |
| 20260506131536 | 60 | 3 | 15.6 | 22.6 | 0.00 | 0.01 | 0.01 | 92 | 1011.1 |
| 20260506131035 | 59 | 4 | 5.2 | 8.7 | 0.00 | 0.01 | 0.01 | 92 | 1011.1 |
| 20260506130531 | 58 | 17 | 13.0 | 17.4 | 0.00 | 0.01 | 0.01 | 92 | 1011.1 |
| 20260506130035 | 58 | 359 | 4.3 | 8.7 | 0.00 | 0.01 | 0.01 | 92 | 1011.1 |
| 20260506125535 | 58 | 10 | 11.3 | 15.6 | 0.00 | 0.01 | 0.01 | 93 | 1011.0 |
| 20260506125035 | 57 | 355 | 2.6 | 8.7 | 0.00 | 0.01 | 0.01 | 93 | 1011.0 |
| 20260506124536 | 57 | 355 | 7.8 | 12.2 | 0.00 | 0.01 | 0.01 | 93 | 1011.1 |
| 20260506124035 | 57 | 3 | 11.3 | 13.9 | 0.00 | 0.01 | 0.01 | 93 | 1011.1 |
| 20260506123535 | 57 | 8 | 9.6 | 15.6 | 0.00 | 0.01 | 0.01 | 93 | 1011.0 |
| 20260506123035 | 57 | 1 | 6.1 | 13.9 | 0.00 | 0.01 | 0.01 | 93 | 1010.9 |
| 20260506122535 | 59 | 334 | 7.0 | 12.2 | 0.00 | 0.01 | 0.01 | 93 | 1010.9 |
| 20260506122028 | 59 | 11 | 7.8 | 12.2 | 0.00 | 0.01 | 0.01 | 93 | 1011.0 |
| 20260506121535 | 58 | 350 | 8.7 | 12.2 | 0.00 | 0.01 | 0.01 | 93 | 1011.0 |
| 20260506121035 | 58 | 10 | 10.4 | 13.9 | 0.00 | 0.01 | 0.01 | 93 | 1011.0 |
| 20260506120528 | 57 | 21 | 10.4 | 13.9 | 0.00 | 0.01 | 0.01 | 93 | 1011.0 |
| 20260506120035 | 57 | 14 | 7.0 | 12.2 | 0.00 | 0.01 | 0.01 | 93 | 1011.0 |
| 20260506115530 | 57 | 4 | 7.8 | 15.6 | 0.00 | 0.01 | 0.01 | 94 | 1011.0 |
| 20260506115036 | 57 | 14 | 10.4 | 15.6 | 0.00 | 0.01 | 0.01 | 94 | 1011.0 |
| 20260506114536 | 58 | 11 | 10.4 | 13.9 | 0.00 | 0.01 | 0.01 | 94 | 1011.1 |